sensor_id;sensor_type;location;lat;lon;timestamp;temperature;humidity
19218;DHT22;9743;52.550;13.264;2022-07-04T00:01:44;20.90;99.90
19218;DHT22;9743;52.550;13.264;2022-07-04T00:04:18;20.90;99.90
19218;DHT22;9743;52.550;13.264;2022-07-04T00:06:44;20.80;99.90
19218;DHT22;9743;52.550;13.264;2022-07-04T00:09:11;20.80;99.90
19218;DHT22;9743;52.550;13.264;2022-07-04T00:11:38;20.70;99.90
19218;DHT22;9743;52.550;13.264;2022-07-04T00:14:05;20.70;99.90
19218;DHT22;9743;52.550;13.264;2022-07-04T00:16:33;20.60;99.90
19218;DHT22;9743;52.550;13.264;2022-07-04T00:19:00;20.50;99.90
19218;DHT22;9743;52.550;13.264;2022-07-04T00:21:27;20.40;99.90
19218;DHT22;9743;52.550;13.264;2022-07-04T00:23:54;20.60;99.90
19218;DHT22;9743;52.550;13.264;2022-07-04T00:26:21;20.50;99.90
19218;DHT22;9743;52.550;13.264;2022-07-04T00:28:48;20.40;99.90
19218;DHT22;9743;52.550;13.264;2022-07-04T00:31:15;20.50;99.90
19218;DHT22;9743;52.550;13.264;2022-07-04T00:33:43;20.60;99.90
19218;DHT22;9743;52.550;13.264;2022-07-04T00:36:10;20.70;99.90
19218;DHT22;9743;52.550;13.264;2022-07-04T00:38:37;20.80;99.90
19218;DHT22;9743;52.550;13.264;2022-07-04T00:41:03;20.70;99.90
19218;DHT22;9743;52.550;13.264;2022-07-04T00:43:30;20.50;99.90
19218;DHT22;9743;52.550;13.264;2022-07-04T00:45:57;20.00;99.90
19218;DHT22;9743;52.550;13.264;2022-07-04T00:48:24;19.80;99.90
19218;DHT22;9743;52.550;13.264;2022-07-04T00:50:52;19.70;99.90
19218;DHT22;9743;52.550;13.264;2022-07-04T00:53:21;19.60;99.90
19218;DHT22;9743;52.550;13.264;2022-07-04T00:55:49;19.50;99.90
19218;DHT22;9743;52.550;13.264;2022-07-04T00:58:19;19.50;99.90
19218;DHT22;9743;52.550;13.264;2022-07-04T01:00:46;19.50;99.90
19218;DHT22;9743;52.550;13.264;2022-07-04T01:03:13;19.60;99.90
19218;DHT22;9743;52.550;13.264;2022-07-04T01:05:40;19.70;99.90
19218;DHT22;9743;52.550;13.264;2022-07-04T01:08:10;19.40;99.90
19218;DHT22;9743;52.550;13.264;2022-07-04T01:10:37;19.30;99.90
19218;DHT22;9743;52.550;13.264;2022-07-04T01:13:04;19.10;99.90
19218;DHT22;9743;52.550;13.264;2022-07-04T01:15:31;19.00;99.90
19218;DHT22;9743;52.550;13.264;2022-07-04T01:17:58;19.00;99.90
19218;DHT22;9743;52.550;13.264;2022-07-04T01:20:26;19.00;99.90
19218;DHT22;9743;52.550;13.264;2022-07-04T01:22:53;19.00;99.90
19218;DHT22;9743;52.550;13.264;2022-07-04T01:25:19;18.90;99.90
19218;DHT22;9743;52.550;13.264;2022-07-04T01:27:46;18.70;99.90
19218;DHT22;9743;52.550;13.264;2022-07-04T01:30:13;18.60;99.90
19218;DHT22;9743;52.550;13.264;2022-07-04T01:32:41;18.70;99.90
19218;DHT22;9743;52.550;13.264;2022-07-04T01:35:08;18.70;99.90
19218;DHT22;9743;52.550;13.264;2022-07-04T01:37:38;18.60;99.90
19218;DHT22;9743;52.550;13.264;2022-07-04T01:40:05;18.60;99.90
19218;DHT22;9743;52.550;13.264;2022-07-04T01:42:32;18.50;99.90
19218;DHT22;9743;52.550;13.264;2022-07-04T01:44:59;18.30;99.90
19218;DHT22;9743;52.550;13.264;2022-07-04T01:47:26;18.30;99.90
19218;DHT22;9743;52.550;13.264;2022-07-04T01:49:53;18.30;99.90
19218;DHT22;9743;52.550;13.264;2022-07-04T01:52:20;18.30;99.90
19218;DHT22;9743;52.550;13.264;2022-07-04T01:54:48;18.20;99.90
19218;DHT22;9743;52.550;13.264;2022-07-04T01:57:15;18.20;99.90
19218;DHT22;9743;52.550;13.264;2022-07-04T01:59:41;18.20;99.90
19218;DHT22;9743;52.550;13.264;2022-07-04T02:02:26;18.10;99.90
19218;DHT22;9743;52.550;13.264;2022-07-04T02:04:52;17.90;99.90
19218;DHT22;9743;52.550;13.264;2022-07-04T02:07:19;17.80;99.90
19218;DHT22;9743;52.550;13.264;2022-07-04T02:09:48;17.70;99.90
19218;DHT22;9743;52.550;13.264;2022-07-04T02:12:14;17.70;99.90
19218;DHT22;9743;52.550;13.264;2022-07-04T02:14:59;17.70;99.90
19218;DHT22;9743;52.550;13.264;2022-07-04T02:17:26;17.70;99.90
19218;DHT22;9743;52.550;13.264;2022-07-04T02:19:53;17.70;99.90
19218;DHT22;9743;52.550;13.264;2022-07-04T02:22:20;17.60;99.90
19218;DHT22;9743;52.550;13.264;2022-07-04T02:24:48;17.50;99.90
19218;DHT22;9743;52.550;13.264;2022-07-04T02:27:15;17.50;99.90
19218;DHT22;9743;52.550;13.264;2022-07-04T02:29:42;17.40;99.90
19218;DHT22;9743;52.550;13.264;2022-07-04T02:32:09;17.40;99.90
19218;DHT22;9743;52.550;13.264;2022-07-04T02:34:36;17.40;99.90
19218;DHT22;9743;52.550;13.264;2022-07-04T02:37:03;17.30;99.90
19218;DHT22;9743;52.550;13.264;2022-07-04T02:39:30;17.40;99.90
19218;DHT22;9743;52.550;13.264;2022-07-04T02:41:58;17.30;99.90
19218;DHT22;9743;52.550;13.264;2022-07-04T02:44:25;17.30;99.90
19218;DHT22;9743;52.550;13.264;2022-07-04T02:46:52;17.40;99.90
19218;DHT22;9743;52.550;13.264;2022-07-04T02:49:19;17.40;99.90
19218;DHT22;9743;52.550;13.264;2022-07-04T02:51:46;17.40;99.90
19218;DHT22;9743;52.550;13.264;2022-07-04T02:54:12;17.30;99.90
19218;DHT22;9743;52.550;13.264;2022-07-04T02:56:39;17.30;99.90
19218;DHT22;9743;52.550;13.264;2022-07-04T02:59:07;17.20;99.90
19218;DHT22;9743;52.550;13.264;2022-07-04T03:01:34;17.20;99.90
19218;DHT22;9743;52.550;13.264;2022-07-04T03:04:01;17.20;99.90
19218;DHT22;9743;52.550;13.264;2022-07-04T03:06:29;17.40;99.90
19218;DHT22;9743;52.550;13.264;2022-07-04T03:08:56;17.40;99.90
19218;DHT22;9743;52.550;13.264;2022-07-04T03:11:23;17.50;99.90
19218;DHT22;9743;52.550;13.264;2022-07-04T03:13:50;17.30;99.90
19218;DHT22;9743;52.550;13.264;2022-07-04T03:16:18;17.10;99.90
19218;DHT22;9743;52.550;13.264;2022-07-04T03:18:45;16.90;99.90
19218;DHT22;9743;52.550;13.264;2022-07-04T03:21:12;16.90;99.90
19218;DHT22;9743;52.550;13.264;2022-07-04T03:23:39;16.90;99.90
19218;DHT22;9743;52.550;13.264;2022-07-04T03:26:06;16.90;99.90
19218;DHT22;9743;52.550;13.264;2022-07-04T03:28:32;16.80;99.90
19218;DHT22;9743;52.550;13.264;2022-07-04T03:30:59;16.90;99.90
19218;DHT22;9743;52.550;13.264;2022-07-04T03:33:27;16.80;99.90
19218;DHT22;9743;52.550;13.264;2022-07-04T03:35:54;16.90;99.90
19218;DHT22;9743;52.550;13.264;2022-07-04T03:38:21;16.90;99.90
19218;DHT22;9743;52.550;13.264;2022-07-04T03:40:48;16.80;99.90
19218;DHT22;9743;52.550;13.264;2022-07-04T03:43:15;16.80;99.90
19218;DHT22;9743;52.550;13.264;2022-07-04T03:45:41;16.70;99.90
19218;DHT22;9743;52.550;13.264;2022-07-04T03:48:08;16.70;99.90
19218;DHT22;9743;52.550;13.264;2022-07-04T03:50:37;16.70;99.90
19218;DHT22;9743;52.550;13.264;2022-07-04T03:53:03;16.80;99.90
19218;DHT22;9743;52.550;13.264;2022-07-04T03:55:30;16.70;99.90
19218;DHT22;9743;52.550;13.264;2022-07-04T03:57:57;16.70;99.90
19218;DHT22;9743;52.550;13.264;2022-07-04T04:00:24;16.70;99.90
19218;DHT22;9743;52.550;13.264;2022-07-04T04:02:51;16.70;99.90
19218;DHT22;9743;52.550;13.264;2022-07-04T04:05:21;16.70;99.90
19218;DHT22;9743;52.550;13.264;2022-07-04T04:08:01;16.70;99.90
19218;DHT22;9743;52.550;13.264;2022-07-04T04:10:29;16.70;99.90
19218;DHT22;9743;52.550;13.264;2022-07-04T04:12:57;16.70;99.90
19218;DHT22;9743;52.550;13.264;2022-07-04T04:15:28;16.70;99.90
19218;DHT22;9743;52.550;13.264;2022-07-04T04:18:05;16.70;99.90
19218;DHT22;9743;52.550;13.264;2022-07-04T04:20:37;16.80;99.90
19218;DHT22;9743;52.550;13.264;2022-07-04T04:23:27;16.80;99.90
19218;DHT22;9743;52.550;13.264;2022-07-04T04:25:54;16.90;99.90
19218;DHT22;9743;52.550;13.264;2022-07-04T04:28:31;17.00;99.90
19218;DHT22;9743;52.550;13.264;2022-07-04T04:30:58;17.00;99.90
19218;DHT22;9743;52.550;13.264;2022-07-04T04:33:25;16.90;99.90
19218;DHT22;9743;52.550;13.264;2022-07-04T04:35:52;17.00;99.90
19218;DHT22;9743;52.550;13.264;2022-07-04T04:38:19;17.10;99.90
19218;DHT22;9743;52.550;13.264;2022-07-04T04:40:47;17.20;99.90
19218;DHT22;9743;52.550;13.264;2022-07-04T04:43:14;17.20;99.90
19218;DHT22;9743;52.550;13.264;2022-07-04T04:45:41;17.20;99.90
19218;DHT22;9743;52.550;13.264;2022-07-04T04:48:08;17.20;99.90
19218;DHT22;9743;52.550;13.264;2022-07-04T04:50:35;17.40;99.90
19218;DHT22;9743;52.550;13.264;2022-07-04T04:53:04;17.40;99.90
19218;DHT22;9743;52.550;13.264;2022-07-04T04:55:31;17.50;99.90
19218;DHT22;9743;52.550;13.264;2022-07-04T04:58:01;17.50;99.90
19218;DHT22;9743;52.550;13.264;2022-07-04T05:00:32;17.50;99.90
19218;DHT22;9743;52.550;13.264;2022-07-04T05:02:59;17.70;99.90
19218;DHT22;9743;52.550;13.264;2022-07-04T05:05:26;18.00;99.90
19218;DHT22;9743;52.550;13.264;2022-07-04T05:07:53;18.20;99.90
19218;DHT22;9743;52.550;13.264;2022-07-04T05:10:21;18.20;99.90
19218;DHT22;9743;52.550;13.264;2022-07-04T05:12:48;18.10;99.90
19218;DHT22;9743;52.550;13.264;2022-07-04T05:15:16;18.10;99.90
19218;DHT22;9743;52.550;13.264;2022-07-04T05:17:43;18.00;99.90
19218;DHT22;9743;52.550;13.264;2022-07-04T05:20:10;18.00;99.90
19218;DHT22;9743;52.550;13.264;2022-07-04T05:22:37;18.00;99.90
19218;DHT22;9743;52.550;13.264;2022-07-04T05:25:06;17.80;99.90
19218;DHT22;9743;52.550;13.264;2022-07-04T05:27:33;17.90;99.90
19218;DHT22;9743;52.550;13.264;2022-07-04T05:30:00;17.70;99.90
19218;DHT22;9743;52.550;13.264;2022-07-04T05:32:29;17.70;99.90
19218;DHT22;9743;52.550;13.264;2022-07-04T05:34:56;17.90;99.90
19218;DHT22;9743;52.550;13.264;2022-07-04T05:37:23;18.10;99.90
19218;DHT22;9743;52.550;13.264;2022-07-04T05:39:50;18.10;99.90
19218;DHT22;9743;52.550;13.264;2022-07-04T05:42:17;18.30;99.90
19218;DHT22;9743;52.550;13.264;2022-07-04T05:44:44;18.40;99.90
19218;DHT22;9743;52.550;13.264;2022-07-04T05:47:11;18.40;99.90
19218;DHT22;9743;52.550;13.264;2022-07-04T05:49:39;18.50;99.90
19218;DHT22;9743;52.550;13.264;2022-07-04T05:52:06;18.70;99.90
19218;DHT22;9743;52.550;13.264;2022-07-04T05:54:38;18.60;99.90
19218;DHT22;9743;52.550;13.264;2022-07-04T05:57:29;18.70;99.90
19218;DHT22;9743;52.550;13.264;2022-07-04T05:59:56;18.70;99.90
19218;DHT22;9743;52.550;13.264;2022-07-04T06:02:23;18.80;99.90
19218;DHT22;9743;52.550;13.264;2022-07-04T06:04:51;18.80;99.90
19218;DHT22;9743;52.550;13.264;2022-07-04T06:07:18;19.00;99.90
19218;DHT22;9743;52.550;13.264;2022-07-04T06:09:45;19.10;99.90
19218;DHT22;9743;52.550;13.264;2022-07-04T06:12:12;19.20;99.90
19218;DHT22;9743;52.550;13.264;2022-07-04T06:14:39;19.20;99.90
19218;DHT22;9743;52.550;13.264;2022-07-04T06:17:06;19.40;99.90
19218;DHT22;9743;52.550;13.264;2022-07-04T06:19:32;19.40;99.90
19218;DHT22;9743;52.550;13.264;2022-07-04T06:22:01;19.50;99.90
19218;DHT22;9743;52.550;13.264;2022-07-04T06:24:28;19.50;99.90
19218;DHT22;9743;52.550;13.264;2022-07-04T06:26:55;19.70;99.90
19218;DHT22;9743;52.550;13.264;2022-07-04T06:29:21;19.60;99.90
19218;DHT22;9743;52.550;13.264;2022-07-04T06:31:48;19.60;99.90
19218;DHT22;9743;52.550;13.264;2022-07-04T06:34:15;19.70;99.90
19218;DHT22;9743;52.550;13.264;2022-07-04T06:37:01;19.80;99.90
19218;DHT22;9743;52.550;13.264;2022-07-04T06:39:27;20.00;99.90
19218;DHT22;9743;52.550;13.264;2022-07-04T06:41:54;20.00;99.90
19218;DHT22;9743;52.550;13.264;2022-07-04T06:44:21;20.30;99.90
19218;DHT22;9743;52.550;13.264;2022-07-04T06:46:48;20.00;99.90
19218;DHT22;9743;52.550;13.264;2022-07-04T06:49:16;19.80;99.90
19218;DHT22;9743;52.550;13.264;2022-07-04T06:51:43;20.00;99.90
19218;DHT22;9743;52.550;13.264;2022-07-04T06:54:12;20.30;99.90
19218;DHT22;9743;52.550;13.264;2022-07-04T06:56:38;20.30;99.90
19218;DHT22;9743;52.550;13.264;2022-07-04T06:59:05;20.20;99.90
19218;DHT22;9743;52.550;13.264;2022-07-04T07:01:32;20.20;99.90
19218;DHT22;9743;52.550;13.264;2022-07-04T07:03:59;20.30;99.90
19218;DHT22;9743;52.550;13.264;2022-07-04T07:06:25;20.50;99.90
19218;DHT22;9743;52.550;13.264;2022-07-04T07:08:52;20.50;99.90
19218;DHT22;9743;52.550;13.264;2022-07-04T07:11:20;21.00;99.90
19218;DHT22;9743;52.550;13.264;2022-07-04T07:13:49;21.20;99.90
19218;DHT22;9743;52.550;13.264;2022-07-04T07:16:16;21.30;99.90
19218;DHT22;9743;52.550;13.264;2022-07-04T07:18:44;21.50;99.90
19218;DHT22;9743;52.550;13.264;2022-07-04T07:21:11;21.60;99.90
19218;DHT22;9743;52.550;13.264;2022-07-04T07:23:38;21.80;99.90
19218;DHT22;9743;52.550;13.264;2022-07-04T07:26:06;20.90;99.90
19218;DHT22;9743;52.550;13.264;2022-07-04T07:28:34;21.20;99.90
19218;DHT22;9743;52.550;13.264;2022-07-04T07:31:02;21.50;99.90
19218;DHT22;9743;52.550;13.264;2022-07-04T07:33:29;21.30;99.90
19218;DHT22;9743;52.550;13.264;2022-07-04T07:35:55;21.10;99.90
19218;DHT22;9743;52.550;13.264;2022-07-04T07:38:22;21.00;99.90
19218;DHT22;9743;52.550;13.264;2022-07-04T07:40:49;21.00;99.90
19218;DHT22;9743;52.550;13.264;2022-07-04T07:43:17;20.60;99.90
19218;DHT22;9743;52.550;13.264;2022-07-04T07:45:45;20.60;99.90
19218;DHT22;9743;52.550;13.264;2022-07-04T07:48:12;20.50;99.90
19218;DHT22;9743;52.550;13.264;2022-07-04T07:50:39;20.30;99.90
19218;DHT22;9743;52.550;13.264;2022-07-04T07:53:06;20.50;99.90
19218;DHT22;9743;52.550;13.264;2022-07-04T07:55:32;20.50;99.90
19218;DHT22;9743;52.550;13.264;2022-07-04T07:58:01;20.70;99.90
19218;DHT22;9743;52.550;13.264;2022-07-04T08:00:28;20.80;99.90
19218;DHT22;9743;52.550;13.264;2022-07-04T08:02:56;20.50;99.90
19218;DHT22;9743;52.550;13.264;2022-07-04T08:05:40;20.40;99.90
19218;DHT22;9743;52.550;13.264;2022-07-04T08:08:07;20.40;99.90
19218;DHT22;9743;52.550;13.264;2022-07-04T08:10:36;20.40;99.90
19218;DHT22;9743;52.550;13.264;2022-07-04T08:13:03;20.90;99.90
19218;DHT22;9743;52.550;13.264;2022-07-04T08:15:29;21.40;99.90
19218;DHT22;9743;52.550;13.264;2022-07-04T08:17:58;21.50;99.90
19218;DHT22;9743;52.550;13.264;2022-07-04T08:20:24;21.70;99.90
19218;DHT22;9743;52.550;13.264;2022-07-04T08:22:51;21.90;99.90
19218;DHT22;9743;52.550;13.264;2022-07-04T08:25:18;21.80;99.90
19218;DHT22;9743;52.550;13.264;2022-07-04T08:27:45;21.60;99.90
19218;DHT22;9743;52.550;13.264;2022-07-04T08:30:12;22.00;99.90
19218;DHT22;9743;52.550;13.264;2022-07-04T08:32:39;22.00;99.90
19218;DHT22;9743;52.550;13.264;2022-07-04T08:35:08;22.30;99.90
19218;DHT22;9743;52.550;13.264;2022-07-04T08:37:35;22.30;99.90
19218;DHT22;9743;52.550;13.264;2022-07-04T08:40:03;22.30;99.90
19218;DHT22;9743;52.550;13.264;2022-07-04T08:42:36;22.30;99.90
19218;DHT22;9743;52.550;13.264;2022-07-04T08:45:03;22.30;99.90
19218;DHT22;9743;52.550;13.264;2022-07-04T08:47:33;22.20;99.90
19218;DHT22;9743;52.550;13.264;2022-07-04T08:50:08;22.10;99.90
19218;DHT22;9743;52.550;13.264;2022-07-04T08:52:39;22.10;99.90
19218;DHT22;9743;52.550;13.264;2022-07-04T08:55:08;22.20;99.90
19218;DHT22;9743;52.550;13.264;2022-07-04T08:57:53;22.30;99.90
19218;DHT22;9743;52.550;13.264;2022-07-04T09:00:38;22.30;99.90
19218;DHT22;9743;52.550;13.264;2022-07-04T09:03:05;22.90;99.90
19218;DHT22;9743;52.550;13.264;2022-07-04T09:05:33;23.20;99.90
19218;DHT22;9743;52.550;13.264;2022-07-04T09:08:02;23.40;99.90
19218;DHT22;9743;52.550;13.264;2022-07-04T09:10:30;23.40;99.90
19218;DHT22;9743;52.550;13.264;2022-07-04T09:12:57;23.10;99.90
19218;DHT22;9743;52.550;13.264;2022-07-04T09:15:25;23.30;99.90
19218;DHT22;9743;52.550;13.264;2022-07-04T09:17:52;22.80;99.90
19218;DHT22;9743;52.550;13.264;2022-07-04T09:20:22;22.70;99.90
19218;DHT22;9743;52.550;13.264;2022-07-04T09:22:51;22.90;99.90
19218;DHT22;9743;52.550;13.264;2022-07-04T09:25:19;22.90;99.90
19218;DHT22;9743;52.550;13.264;2022-07-04T09:27:48;22.80;99.90
19218;DHT22;9743;52.550;13.264;2022-07-04T09:30:17;22.80;99.90
19218;DHT22;9743;52.550;13.264;2022-07-04T09:32:47;22.90;99.90
19218;DHT22;9743;52.550;13.264;2022-07-04T09:35:23;23.60;99.90
19218;DHT22;9743;52.550;13.264;2022-07-04T09:37:53;23.00;99.90
19218;DHT22;9743;52.550;13.264;2022-07-04T09:40:25;23.70;99.90
19218;DHT22;9743;52.550;13.264;2022-07-04T09:42:54;24.00;99.90
19218;DHT22;9743;52.550;13.264;2022-07-04T09:45:21;24.00;99.90
19218;DHT22;9743;52.550;13.264;2022-07-04T09:47:51;23.50;99.90
19218;DHT22;9743;52.550;13.264;2022-07-04T09:50:20;23.90;99.90
19218;DHT22;9743;52.550;13.264;2022-07-04T09:52:53;24.10;99.90
19218;DHT22;9743;52.550;13.264;2022-07-04T09:55:24;24.20;99.90
19218;DHT22;9743;52.550;13.264;2022-07-04T09:57:52;23.60;99.90
19218;DHT22;9743;52.550;13.264;2022-07-04T10:00:21;24.10;99.90
19218;DHT22;9743;52.550;13.264;2022-07-04T10:02:48;23.80;99.90
19218;DHT22;9743;52.550;13.264;2022-07-04T10:05:23;23.60;99.90
19218;DHT22;9743;52.550;13.264;2022-07-04T10:07:51;23.90;99.90
19218;DHT22;9743;52.550;13.264;2022-07-04T10:10:40;23.90;99.90
19218;DHT22;9743;52.550;13.264;2022-07-04T10:13:10;24.40;99.90
19218;DHT22;9743;52.550;13.264;2022-07-04T10:15:40;24.40;99.90
19218;DHT22;9743;52.550;13.264;2022-07-04T10:18:10;23.90;99.90
19218;DHT22;9743;52.550;13.264;2022-07-04T10:20:37;23.60;99.90
19218;DHT22;9743;52.550;13.264;2022-07-04T10:23:04;23.60;99.90
19218;DHT22;9743;52.550;13.264;2022-07-04T10:25:31;23.60;99.90
19218;DHT22;9743;52.550;13.264;2022-07-04T10:27:59;23.80;99.90
19218;DHT22;9743;52.550;13.264;2022-07-04T10:30:29;24.30;99.90
19218;DHT22;9743;52.550;13.264;2022-07-04T10:32:59;23.70;99.90
19218;DHT22;9743;52.550;13.264;2022-07-04T10:35:52;24.10;99.90
19218;DHT22;9743;52.550;13.264;2022-07-04T10:38:21;24.40;99.90
19218;DHT22;9743;52.550;13.264;2022-07-04T10:40:50;23.90;99.90
19218;DHT22;9743;52.550;13.264;2022-07-04T10:43:53;23.70;99.90
19218;DHT22;9743;52.550;13.264;2022-07-04T10:46:30;23.60;99.90
19218;DHT22;9743;52.550;13.264;2022-07-04T10:48:58;23.50;99.90
19218;DHT22;9743;52.550;13.264;2022-07-04T10:51:40;22.90;99.90
19218;DHT22;9743;52.550;13.264;2022-07-04T10:54:10;23.00;99.90
19218;DHT22;9743;52.550;13.264;2022-07-04T10:56:44;23.60;99.90
19218;DHT22;9743;52.550;13.264;2022-07-04T10:59:15;24.40;99.90
19218;DHT22;9743;52.550;13.264;2022-07-04T11:01:46;24.90;99.90
19218;DHT22;9743;52.550;13.264;2022-07-04T11:04:13;24.30;99.90
19218;DHT22;9743;52.550;13.264;2022-07-04T11:07:00;24.10;99.90
19218;DHT22;9743;52.550;13.264;2022-07-04T11:09:30;24.40;99.90
19218;DHT22;9743;52.550;13.264;2022-07-04T11:11:58;23.90;99.90
19218;DHT22;9743;52.550;13.264;2022-07-04T11:14:35;24.50;99.90
19218;DHT22;9743;52.550;13.264;2022-07-04T11:17:02;24.70;99.90
19218;DHT22;9743;52.550;13.264;2022-07-04T11:19:29;24.80;99.90
19218;DHT22;9743;52.550;13.264;2022-07-04T11:21:57;24.80;99.90
19218;DHT22;9743;52.550;13.264;2022-07-04T11:24:24;24.70;99.90
19218;DHT22;9743;52.550;13.264;2022-07-04T11:26:52;24.50;99.90
19218;DHT22;9743;52.550;13.264;2022-07-04T11:29:18;25.00;99.90
19218;DHT22;9743;52.550;13.264;2022-07-04T11:31:48;24.80;99.90
19218;DHT22;9743;52.550;13.264;2022-07-04T11:34:15;24.10;99.90
19218;DHT22;9743;52.550;13.264;2022-07-04T11:36:43;24.70;99.90
19218;DHT22;9743;52.550;13.264;2022-07-04T11:39:11;23.90;99.90
19218;DHT22;9743;52.550;13.264;2022-07-04T11:41:40;24.00;99.90
19218;DHT22;9743;52.550;13.264;2022-07-04T11:44:26;24.80;99.90
19218;DHT22;9743;52.550;13.264;2022-07-04T11:47:13;24.10;99.90
19218;DHT22;9743;52.550;13.264;2022-07-04T11:49:44;23.60;99.90
19218;DHT22;9743;52.550;13.264;2022-07-04T11:52:11;23.60;99.90
19218;DHT22;9743;52.550;13.264;2022-07-04T11:54:39;24.50;99.90
19218;DHT22;9743;52.550;13.264;2022-07-04T11:57:15;24.90;99.90
19218;DHT22;9743;52.550;13.264;2022-07-04T11:59:43;25.60;99.90
19218;DHT22;9743;52.550;13.264;2022-07-04T12:02:14;25.00;99.90
19218;DHT22;9743;52.550;13.264;2022-07-04T12:04:41;23.90;99.90
19218;DHT22;9743;52.550;13.264;2022-07-04T12:07:09;24.10;99.90
19218;DHT22;9743;52.550;13.264;2022-07-04T12:09:36;23.90;99.90
19218;DHT22;9743;52.550;13.264;2022-07-04T12:12:03;23.80;99.90
19218;DHT22;9743;52.550;13.264;2022-07-04T12:14:32;24.10;99.90
19218;DHT22;9743;52.550;13.264;2022-07-04T12:17:10;24.70;99.90
19218;DHT22;9743;52.550;13.264;2022-07-04T12:19:50;25.40;99.90
19218;DHT22;9743;52.550;13.264;2022-07-04T12:22:34;25.60;99.90
19218;DHT22;9743;52.550;13.264;2022-07-04T12:25:04;25.40;99.90
19218;DHT22;9743;52.550;13.264;2022-07-04T12:27:32;24.20;99.90
19218;DHT22;9743;52.550;13.264;2022-07-04T12:30:00;24.50;99.90
19218;DHT22;9743;52.550;13.264;2022-07-04T12:32:50;24.50;99.90
19218;DHT22;9743;52.550;13.264;2022-07-04T12:35:50;25.20;99.90
19218;DHT22;9743;52.550;13.264;2022-07-04T12:38:19;25.20;99.90
19218;DHT22;9743;52.550;13.264;2022-07-04T12:40:54;25.80;99.90
19218;DHT22;9743;52.550;13.264;2022-07-04T12:43:23;25.70;99.90
19218;DHT22;9743;52.550;13.264;2022-07-04T12:45:52;25.70;99.90
19218;DHT22;9743;52.550;13.264;2022-07-04T12:48:23;25.80;99.90
19218;DHT22;9743;52.550;13.264;2022-07-04T12:51:07;25.80;99.90
19218;DHT22;9743;52.550;13.264;2022-07-04T12:53:36;25.50;99.90
19218;DHT22;9743;52.550;13.264;2022-07-04T12:56:04;25.50;99.90
19218;DHT22;9743;52.550;13.264;2022-07-04T12:58:31;25.70;99.90
19218;DHT22;9743;52.550;13.264;2022-07-04T13:00:58;25.50;99.90
19218;DHT22;9743;52.550;13.264;2022-07-04T13:03:25;25.30;99.90
19218;DHT22;9743;52.550;13.264;2022-07-04T13:05:52;25.80;99.90
19218;DHT22;9743;52.550;13.264;2022-07-04T13:08:22;26.10;99.90
19218;DHT22;9743;52.550;13.264;2022-07-04T13:10:48;26.60;99.90
19218;DHT22;9743;52.550;13.264;2022-07-04T13:13:36;27.20;99.90
19218;DHT22;9743;52.550;13.264;2022-07-04T13:16:03;27.20;99.90
19218;DHT22;9743;52.550;13.264;2022-07-04T13:18:30;27.40;99.90
19218;DHT22;9743;52.550;13.264;2022-07-04T13:20:57;27.30;99.90
19218;DHT22;9743;52.550;13.264;2022-07-04T13:23:25;27.10;99.90
19218;DHT22;9743;52.550;13.264;2022-07-04T13:25:52;27.50;99.00
19218;DHT22;9743;52.550;13.264;2022-07-04T13:28:19;25.80;96.80
19218;DHT22;9743;52.550;13.264;2022-07-04T13:30:46;25.50;97.90
19218;DHT22;9743;52.550;13.264;2022-07-04T13:33:12;25.50;98.80
19218;DHT22;9743;52.550;13.264;2022-07-04T13:35:39;26.20;98.60
19218;DHT22;9743;52.550;13.264;2022-07-04T13:38:06;26.40;99.00
19218;DHT22;9743;52.550;13.264;2022-07-04T13:40:35;25.70;98.20
19218;DHT22;9743;52.550;13.264;2022-07-04T13:43:01;26.20;99.90
19218;DHT22;9743;52.550;13.264;2022-07-04T13:45:35;27.00;99.50
19218;DHT22;9743;52.550;13.264;2022-07-04T13:48:02;26.50;96.90
19218;DHT22;9743;52.550;13.264;2022-07-04T13:50:29;26.30;97.40
19218;DHT22;9743;52.550;13.264;2022-07-04T13:52:55;26.00;97.40
19218;DHT22;9743;52.550;13.264;2022-07-04T13:55:22;26.00;97.90
19218;DHT22;9743;52.550;13.264;2022-07-04T13:57:50;25.90;97.00
19218;DHT22;9743;52.550;13.264;2022-07-04T14:00:17;25.80;97.80
19218;DHT22;9743;52.550;13.264;2022-07-04T14:02:52;25.80;97.00
19218;DHT22;9743;52.550;13.264;2022-07-04T14:05:19;26.70;99.40
19218;DHT22;9743;52.550;13.264;2022-07-04T14:07:45;27.10;96.00
19218;DHT22;9743;52.550;13.264;2022-07-04T14:10:13;27.70;96.60
19218;DHT22;9743;52.550;13.264;2022-07-04T14:12:40;28.10;96.00
19218;DHT22;9743;52.550;13.264;2022-07-04T14:15:09;27.40;94.50
19218;DHT22;9743;52.550;13.264;2022-07-04T14:17:36;27.50;96.00
19218;DHT22;9743;52.550;13.264;2022-07-04T14:20:04;26.70;96.20
19218;DHT22;9743;52.550;13.264;2022-07-04T14:22:31;26.10;95.90
19218;DHT22;9743;52.550;13.264;2022-07-04T14:24:58;26.10;96.10
19218;DHT22;9743;52.550;13.264;2022-07-04T14:27:25;25.50;94.90
19218;DHT22;9743;52.550;13.264;2022-07-04T14:29:51;25.20;95.60
19218;DHT22;9743;52.550;13.264;2022-07-04T14:32:21;25.20;95.80
19218;DHT22;9743;52.550;13.264;2022-07-04T14:34:48;25.20;95.80
19218;DHT22;9743;52.550;13.264;2022-07-04T14:37:15;25.10;95.70
19218;DHT22;9743;52.550;13.264;2022-07-04T14:39:42;24.80;95.50
19218;DHT22;9743;52.550;13.264;2022-07-04T14:42:09;24.70;95.70
19218;DHT22;9743;52.550;13.264;2022-07-04T14:44:36;24.90;96.10
19218;DHT22;9743;52.550;13.264;2022-07-04T14:47:04;25.50;95.60
19218;DHT22;9743;52.550;13.264;2022-07-04T14:49:32;25.20;95.80
19218;DHT22;9743;52.550;13.264;2022-07-04T14:51:59;25.50;96.20
19218;DHT22;9743;52.550;13.264;2022-07-04T14:54:26;25.80;95.00
19218;DHT22;9743;52.550;13.264;2022-07-04T14:56:53;26.00;94.70
19218;DHT22;9743;52.550;13.264;2022-07-04T14:59:20;25.70;95.80
19218;DHT22;9743;52.550;13.264;2022-07-04T15:01:47;25.50;95.00
19218;DHT22;9743;52.550;13.264;2022-07-04T15:04:15;25.40;95.70
19218;DHT22;9743;52.550;13.264;2022-07-04T15:06:43;25.00;95.50
19218;DHT22;9743;52.550;13.264;2022-07-04T15:09:10;24.80;95.60
19218;DHT22;9743;52.550;13.264;2022-07-04T15:11:37;25.10;96.00
19218;DHT22;9743;52.550;13.264;2022-07-04T15:14:04;25.00;95.20
19218;DHT22;9743;52.550;13.264;2022-07-04T15:16:30;24.90;94.90
19218;DHT22;9743;52.550;13.264;2022-07-04T15:18:57;25.00;96.30
19218;DHT22;9743;52.550;13.264;2022-07-04T15:21:24;25.00;95.90
19218;DHT22;9743;52.550;13.264;2022-07-04T15:24:10;25.30;96.80
19218;DHT22;9743;52.550;13.264;2022-07-04T15:26:37;25.50;96.70
19218;DHT22;9743;52.550;13.264;2022-07-04T15:29:04;25.80;94.60
19218;DHT22;9743;52.550;13.264;2022-07-04T15:31:31;25.70;94.50
19218;DHT22;9743;52.550;13.264;2022-07-04T15:33:58;25.30;94.70
19218;DHT22;9743;52.550;13.264;2022-07-04T15:36:24;25.10;94.30
19218;DHT22;9743;52.550;13.264;2022-07-04T15:38:51;25.20;95.60
19218;DHT22;9743;52.550;13.264;2022-07-04T15:41:22;25.30;96.30